createdAt,value
2018-06-25T00:01:13.547Z,9.60
2018-06-25T00:03:42.215Z,8.77
2018-06-25T00:06:11.097Z,8.17
2018-06-25T00:08:39.618Z,9.77
2018-06-25T00:11:08.165Z,9.10
2018-06-25T00:13:36.730Z,7.73
2018-06-25T00:16:05.347Z,7.13
2018-06-25T00:18:33.901Z,8.20
2018-06-25T00:21:02.442Z,9.73
2018-06-25T00:23:30.987Z,8.63
2018-06-25T00:25:59.529Z,6.90
2018-06-25T00:28:28.093Z,9.13
2018-06-25T00:30:57.222Z,6.33
2018-06-25T00:33:25.770Z,6.77
2018-06-25T00:35:54.316Z,7.90
2018-06-25T00:38:22.870Z,9.53
2018-06-25T00:40:51.423Z,5.87
2018-06-25T00:43:19.938Z,10.13
2018-06-25T00:45:48.555Z,8.93
2018-06-25T00:48:17.124Z,9.00
2018-06-25T00:50:45.703Z,10.20
2018-06-25T00:53:14.265Z,9.23
2018-06-25T00:55:42.803Z,8.13
2018-06-25T00:58:11.405Z,9.13
2018-06-25T01:00:39.960Z,6.93
2018-06-25T01:03:08.658Z,8.30
2018-06-25T01:05:37.225Z,8.87
2018-06-25T01:08:06.578Z,9.90
2018-06-25T01:10:35.109Z,5.83
2018-06-25T01:13:03.654Z,6.47
2018-06-25T01:15:32.213Z,8.43
2018-06-25T01:18:00.813Z,5.47
2018-06-25T01:20:29.358Z,7.30
2018-06-25T01:22:57.893Z,7.70
2018-06-25T01:25:26.421Z,8.53
2018-06-25T01:27:57.596Z,9.17
2018-06-25T01:30:26.426Z,7.33
2018-06-25T01:32:54.978Z,6.73
2018-06-25T01:35:23.497Z,5.67
2018-06-25T01:37:52.062Z,7.37
2018-06-25T01:40:20.638Z,7.80
2018-06-25T01:42:49.194Z,6.80
2018-06-25T01:45:17.726Z,8.93
2018-06-25T01:47:46.940Z,6.97
2018-06-25T01:50:15.477Z,6.70
2018-06-25T01:52:43.987Z,5.07
2018-06-25T01:55:12.554Z,7.47
2018-06-25T01:57:41.086Z,7.03
2018-06-25T02:00:09.642Z,7.93
2018-06-25T02:02:38.190Z,5.63
2018-06-25T02:05:06.748Z,8.83
2018-06-25T02:07:35.306Z,7.00
2018-06-25T02:10:04.147Z,7.07
2018-06-25T02:12:32.716Z,7.17
2018-06-25T02:15:06.942Z,8.20
2018-06-25T02:17:35.509Z,11.00
2018-06-25T02:20:04.445Z,7.13
2018-06-25T02:22:33.338Z,7.87
2018-06-25T02:25:01.878Z,7.93
2018-06-25T02:27:30.426Z,10.23
2018-06-25T02:29:58.955Z,7.20
2018-06-25T02:32:27.470Z,6.73
2018-06-25T02:34:55.989Z,8.87
2018-06-25T02:37:25.362Z,7.23
2018-06-25T02:39:54.099Z,8.97
2018-06-25T02:42:22.806Z,7.27
2018-06-25T02:44:51.691Z,6.23
2018-06-25T02:47:21.006Z,9.17
2018-06-25T02:49:49.569Z,9.47
2018-06-25T02:52:18.119Z,8.53
2018-06-25T02:54:46.670Z,8.47
2018-06-25T02:57:15.191Z,6.80
2018-06-25T02:59:43.791Z,8.33
2018-06-25T03:02:12.360Z,8.20
2018-06-25T03:04:40.896Z,8.40
2018-06-25T03:07:09.419Z,8.17
2018-06-25T03:09:38.408Z,9.00
2018-06-25T03:12:07.579Z,9.37
2018-06-25T03:14:36.110Z,11.50
2018-06-25T03:17:04.698Z,10.37
2018-06-25T03:19:33.257Z,8.40
2018-06-25T03:22:01.785Z,8.63
2018-06-25T03:24:30.311Z,9.87
2018-06-25T03:26:58.913Z,9.07
2018-06-25T03:29:27.467Z,11.97
2018-06-25T03:31:56.005Z,10.87
2018-06-25T03:34:24.530Z,14.97
2018-06-25T03:36:53.303Z,11.77
2018-06-25T03:39:21.831Z,11.67
2018-06-25T03:41:50.378Z,13.83
2018-06-25T03:44:18.900Z,12.93
2018-06-25T03:46:47.502Z,15.30
2018-06-25T03:49:16.033Z,14.37
2018-06-25T03:51:44.575Z,12.87
2018-06-25T03:54:13.125Z,16.00
2018-06-25T03:56:41.694Z,17.30
2018-06-25T03:59:10.236Z,15.60
2018-06-25T04:01:38.746Z,15.07
2018-06-25T04:04:07.285Z,18.43
2018-06-25T04:06:35.841Z,15.70
2018-06-25T04:09:06.864Z,15.43
2018-06-25T04:11:35.784Z,14.07
2018-06-25T04:14:04.604Z,16.30
2018-06-25T04:16:33.348Z,11.60
2018-06-25T04:19:04.367Z,18.10
2018-06-25T04:21:34.662Z,13.37
2018-06-25T04:24:03.207Z,15.63
2018-06-25T04:26:33.488Z,13.30
2018-06-25T04:29:02.568Z,12.60
2018-06-25T04:31:31.436Z,12.13
2018-06-25T04:34:00.073Z,15.23
2018-06-25T04:36:28.953Z,13.97
2018-06-25T04:38:57.537Z,10.03
2018-06-25T04:41:26.079Z,20.23
2018-06-25T04:43:54.742Z,14.50
2018-06-25T04:46:23.263Z,12.93
2018-06-25T04:48:51.857Z,15.20
2018-06-25T04:51:20.509Z,14.30
2018-06-25T04:53:49.396Z,14.37
2018-06-25T04:56:17.910Z,15.93
2018-06-25T04:58:46.446Z,17.10
2018-06-25T05:01:15.042Z,13.37
2018-06-25T05:03:44.511Z,17.53
2018-06-25T05:06:13.053Z,16.37
2018-06-25T05:08:42.156Z,16.17
2018-06-25T05:11:10.380Z,15.03
2018-06-25T05:13:38.938Z,19.83
2018-06-25T05:16:07.501Z,17.93
2018-06-25T05:18:36.085Z,20.27
2018-06-25T05:21:04.647Z,16.87
2018-06-25T05:23:33.245Z,20.53
2018-06-25T05:26:01.780Z,21.33
2018-06-25T05:28:30.341Z,20.53
2018-06-25T05:30:58.572Z,15.83
2018-06-25T05:33:27.151Z,22.03
2018-06-25T05:35:55.768Z,20.57
2018-06-25T05:38:24.336Z,22.33
2018-06-25T05:40:53.238Z,20.10
2018-06-25T05:43:21.790Z,16.23
2018-06-25T05:45:50.345Z,17.97
2018-06-25T05:48:19.476Z,18.67
2018-06-25T05:50:48.038Z,20.50
2018-06-25T05:53:16.555Z,16.80
2018-06-25T05:55:45.127Z,17.97
2018-06-25T05:58:13.726Z,22.43
2018-06-25T06:00:42.989Z,19.13
2018-06-25T06:03:11.582Z,23.60
2018-06-25T06:05:40.165Z,26.93
2018-06-25T06:08:08.745Z,29.17
2018-06-25T06:10:37.847Z,19.97
2018-06-25T06:13:07.130Z,17.27
2018-06-25T06:15:36.712Z,16.20
2018-06-25T06:18:05.566Z,17.57
2018-06-25T06:20:34.120Z,16.27
2018-06-25T06:23:02.687Z,22.30
2018-06-25T06:25:31.254Z,18.43
2018-06-25T06:27:59.782Z,19.23
2018-06-25T06:30:28.375Z,19.30
2018-06-25T06:33:00.458Z,21.47
2018-06-25T06:35:29.037Z,23.73
2018-06-25T06:37:57.593Z,18.43
2018-06-25T06:40:29.003Z,12.53
2018-06-25T06:42:57.635Z,14.93
2018-06-25T06:45:28.410Z,17.80
2018-06-25T06:47:56.970Z,17.50
2018-06-25T06:50:26.869Z,22.77
2018-06-25T06:52:55.461Z,14.23
2018-06-25T06:55:24.049Z,15.90
2018-06-25T06:57:52.723Z,20.40
2018-06-25T07:00:21.188Z,16.93
2018-06-25T07:02:49.751Z,14.23
2018-06-25T07:05:19.448Z,13.70
2018-06-25T07:07:49.285Z,16.17
2018-06-25T07:10:20.135Z,10.27
2018-06-25T07:12:49.918Z,10.10
2018-06-25T07:15:18.929Z,13.90
2018-06-25T07:17:47.499Z,11.97
2018-06-25T07:20:16.049Z,12.50
2018-06-25T07:22:44.898Z,15.93
2018-06-25T07:25:13.462Z,11.17
2018-06-25T07:27:42.014Z,11.13
2018-06-25T07:30:10.592Z,13.67
2018-06-25T07:32:39.145Z,11.33
2018-06-25T07:35:07.718Z,9.43
2018-06-25T07:37:37.634Z,11.23
2018-06-25T07:40:07.644Z,10.03
2018-06-25T07:42:36.265Z,11.53
2018-06-25T07:45:04.884Z,10.40
2018-06-25T07:47:33.578Z,9.60
2018-06-25T07:50:02.144Z,9.20
2018-06-25T07:52:30.671Z,12.87
2018-06-25T07:54:59.239Z,10.90
2018-06-25T07:57:28.298Z,10.47
2018-06-25T07:59:56.878Z,17.17
2018-06-25T08:02:25.408Z,13.83
2018-06-25T08:04:54.850Z,8.00
2018-06-25T08:07:23.407Z,9.30
2018-06-25T08:09:52.297Z,10.50
2018-06-25T08:12:20.858Z,8.10
2018-06-25T08:14:49.440Z,9.73
2018-06-25T08:17:18.021Z,11.77
2018-06-25T08:19:47.123Z,8.13
2018-06-25T08:22:15.669Z,11.00
2018-06-25T08:24:44.281Z,8.53
2018-06-25T08:27:12.818Z,8.03
2018-06-25T08:29:41.437Z,6.53
2018-06-25T08:32:10.078Z,7.97
2018-06-25T08:34:38.638Z,9.87
2018-06-25T08:37:07.255Z,8.20
2018-06-25T08:39:35.816Z,7.30
2018-06-25T08:42:04.441Z,8.43
2018-06-25T08:44:33.075Z,6.57
2018-06-25T08:47:01.621Z,6.60
2018-06-25T08:49:30.210Z,11.97
2018-06-25T08:51:58.841Z,7.10
2018-06-25T08:54:27.331Z,8.33
2018-06-25T08:56:56.457Z,7.33
2018-06-25T08:59:25.022Z,6.47
2018-06-25T09:01:55.107Z,9.37
2018-06-25T09:04:24.057Z,8.67
2018-06-25T09:06:52.578Z,9.33
2018-06-25T09:09:21.199Z,13.10
2018-06-25T09:11:49.769Z,10.23
2018-06-25T09:14:18.411Z,6.00
2018-06-25T09:16:46.961Z,5.17
2018-06-25T09:19:15.498Z,7.30
2018-06-25T09:21:44.038Z,8.83
2018-06-25T09:24:12.605Z,8.40
2018-06-25T09:26:42.459Z,7.93
2018-06-25T09:29:12.083Z,9.13
2018-06-25T09:31:40.628Z,7.57
2018-06-25T09:34:14.557Z,7.83
2018-06-25T09:36:43.542Z,8.77
2018-06-25T09:39:12.959Z,8.20
2018-06-25T09:41:41.682Z,8.33
2018-06-25T09:44:11.058Z,5.83
2018-06-25T09:46:39.838Z,6.80
2018-06-25T09:49:08.443Z,8.17
2018-06-25T09:51:37.666Z,6.03
2018-06-25T09:54:06.300Z,6.63
2018-06-25T09:56:35.131Z,7.53
2018-06-25T09:59:03.766Z,9.90
2018-06-25T10:01:32.432Z,5.93
2018-06-25T10:04:00.965Z,6.63
2018-06-25T10:06:29.561Z,6.47
2018-06-25T10:08:58.139Z,5.97
2018-06-25T10:11:26.725Z,8.40
2018-06-25T10:13:55.652Z,5.80
2018-06-25T10:16:26.080Z,5.10
2018-06-25T10:18:54.644Z,6.57
2018-06-25T10:21:23.225Z,7.27
2018-06-25T10:23:52.570Z,6.73
2018-06-25T10:26:21.179Z,9.10
2018-06-25T10:28:50.155Z,8.63
2018-06-25T10:31:18.432Z,8.60
2018-06-25T10:33:47.110Z,5.37
2018-06-25T10:36:15.783Z,7.30
2018-06-25T10:38:44.969Z,6.62
2018-06-25T10:41:13.530Z,7.13
2018-06-25T10:43:42.103Z,6.73
2018-06-25T10:46:10.688Z,6.57
2018-06-25T10:48:39.226Z,8.00
2018-06-25T10:51:07.777Z,9.53
2018-06-25T10:53:36.479Z,3.80
2018-06-25T10:56:05.072Z,6.03
2018-06-25T10:58:33.590Z,6.63
2018-06-25T11:01:02.211Z,5.83
2018-06-25T11:03:30.734Z,8.17
2018-06-25T11:05:59.493Z,6.83
2018-06-25T11:08:27.940Z,6.30
2018-06-25T11:10:56.496Z,7.47
2018-06-25T11:13:25.094Z,3.30
2018-06-25T11:15:53.647Z,3.57
2018-06-25T11:18:22.761Z,5.80
2018-06-25T11:20:51.306Z,5.03
2018-06-25T11:23:20.004Z,4.73
2018-06-25T11:25:48.565Z,3.77
2018-06-25T11:28:17.433Z,5.03
2018-06-25T11:30:45.991Z,5.13
2018-06-25T11:33:14.666Z,4.47
2018-06-25T11:35:43.214Z,4.53
2018-06-25T11:38:11.800Z,4.37
2018-06-25T11:40:40.326Z,4.00
2018-06-25T11:43:08.883Z,3.83
2018-06-25T11:45:37.437Z,6.97
2018-06-25T11:48:06.029Z,3.40
2018-06-25T11:50:34.591Z,5.60
2018-06-25T11:53:03.205Z,6.20
2018-06-25T11:55:31.810Z,6.57
2018-06-25T11:58:00.347Z,6.67
2018-06-25T12:00:29.811Z,5.13
2018-06-25T12:02:58.479Z,5.87
2018-06-25T12:05:26.983Z,5.07
2018-06-25T12:07:55.803Z,6.20
2018-06-25T12:10:24.358Z,3.27
2018-06-25T12:12:52.938Z,4.87
2018-06-25T12:15:21.504Z,4.07
2018-06-25T12:17:50.050Z,6.03
2018-06-25T12:20:18.600Z,5.23
2018-06-25T12:22:47.185Z,5.70
2018-06-25T12:25:15.733Z,4.73
2018-06-25T12:27:44.359Z,5.90
2018-06-25T12:30:12.967Z,6.00
2018-06-25T12:32:41.513Z,6.73
2018-06-25T12:35:10.139Z,8.83
2018-06-25T12:37:38.760Z,3.37
2018-06-25T12:40:07.387Z,6.10
2018-06-25T12:42:36.250Z,4.80
2018-06-25T12:45:04.497Z,4.97
2018-06-25T12:47:33.027Z,4.90
2018-06-25T12:50:02.591Z,4.47
2018-06-25T12:52:31.139Z,3.67
2018-06-25T12:54:59.671Z,6.10
2018-06-25T12:57:28.830Z,6.57
2018-06-25T12:59:57.402Z,4.80
2018-06-25T13:02:25.918Z,6.97
2018-06-25T13:04:54.468Z,6.30
2018-06-25T13:07:23.010Z,5.97
2018-06-25T13:09:51.552Z,5.83
2018-06-25T13:12:20.113Z,5.20
2018-06-25T13:14:48.682Z,4.27
2018-06-25T13:17:17.278Z,4.07
2018-06-25T13:19:46.066Z,5.17
2018-06-25T13:22:14.959Z,15.38
2018-06-25T13:24:43.542Z,8.23
2018-06-25T13:27:12.129Z,7.83
2018-06-25T13:29:40.775Z,4.87
2018-06-25T13:32:10.433Z,5.43
2018-06-25T13:34:38.992Z,6.87
2018-06-25T13:37:07.562Z,7.13
2018-06-25T13:39:36.531Z,8.90
2018-06-25T13:42:05.899Z,5.30
2018-06-25T13:44:34.515Z,4.40
2018-06-25T13:47:03.187Z,4.83
2018-06-25T13:49:32.017Z,5.03
2018-06-25T13:52:00.599Z,8.53
2018-06-25T13:54:29.124Z,4.80
2018-06-25T13:56:57.689Z,4.47
2018-06-25T13:59:26.246Z,5.73
2018-06-25T14:01:54.665Z,6.97
2018-06-25T14:04:23.266Z,5.67
2018-06-25T14:06:51.858Z,3.93
2018-06-25T14:09:20.420Z,5.30
2018-06-25T14:11:49.021Z,5.67
2018-06-25T14:14:17.671Z,6.20
2018-06-25T14:16:46.801Z,7.43
2018-06-25T14:19:15.970Z,3.97
2018-06-25T14:21:47.138Z,5.77
2018-06-25T14:24:21.051Z,4.50
2018-06-25T14:26:49.943Z,3.93
2018-06-25T14:29:23.885Z,3.53
2018-06-25T14:31:56.713Z,5.23
2018-06-25T14:34:25.272Z,3.63
2018-06-25T14:36:53.843Z,3.67
2018-06-25T14:39:22.374Z,3.77
2018-06-25T14:41:50.902Z,4.40
2018-06-25T14:44:19.870Z,2.63
2018-06-25T14:49:42.026Z,9.10
2018-06-25T14:52:10.675Z,7.40
2018-06-25T14:54:39.319Z,3.77
2018-06-25T14:57:07.897Z,6.37
2018-06-25T14:59:36.497Z,7.50
2018-06-25T15:02:05.136Z,3.87
2018-06-25T15:04:33.697Z,5.30
2018-06-25T15:07:02.386Z,3.17
2018-06-25T15:09:30.977Z,3.50
2018-06-25T15:11:59.612Z,4.53
2018-06-25T15:14:28.217Z,2.90
2018-06-25T15:16:56.811Z,4.30
2018-06-25T15:19:25.432Z,3.17
2018-06-25T15:21:54.140Z,4.00
2018-06-25T15:24:22.747Z,3.37
2018-06-25T15:26:52.214Z,3.87
2018-06-25T15:29:20.820Z,5.57
2018-06-25T15:31:49.422Z,5.50
2018-06-25T15:34:18.005Z,3.53
2018-06-25T15:36:46.578Z,5.67
2018-06-25T15:39:16.057Z,5.17
2018-06-25T15:41:45.442Z,4.80
2018-06-25T15:44:14.180Z,8.90
2018-06-25T15:46:42.805Z,3.50
2018-06-25T15:49:11.972Z,4.77
2018-06-25T15:51:40.899Z,3.23
2018-06-25T15:54:09.941Z,4.10
2018-06-25T15:56:38.958Z,5.07
2018-06-25T15:59:08.096Z,4.10
2018-06-25T16:01:36.680Z,4.07
2018-06-25T16:04:05.482Z,4.93
2018-06-25T16:06:34.688Z,3.90
2018-06-25T16:09:03.411Z,2.50
2018-06-25T16:11:36.325Z,5.03
2018-06-25T16:14:05.308Z,3.97
2018-06-25T16:16:33.969Z,3.30
2018-06-25T16:19:02.547Z,4.97
2018-06-25T16:21:31.181Z,4.63
2018-06-25T16:23:59.788Z,3.13
2018-06-25T16:26:28.360Z,3.90
2018-06-25T16:28:56.944Z,5.80
2018-06-25T16:31:25.591Z,3.63
2018-06-25T16:33:54.225Z,5.37
2018-06-25T16:36:22.799Z,2.63
2018-06-25T16:38:51.633Z,4.63
2018-06-25T16:41:20.293Z,6.93
2018-06-25T16:43:48.984Z,5.07
2018-06-25T16:46:17.717Z,4.93
2018-06-25T16:48:46.406Z,5.50
2018-06-25T16:51:15.118Z,3.03
2018-06-25T16:53:44.524Z,3.37
2018-06-25T16:56:13.273Z,5.60
2018-06-25T16:58:42.615Z,4.37
2018-06-25T17:01:11.242Z,4.43
2018-06-25T17:03:39.825Z,5.10
2018-06-25T17:06:08.525Z,5.27
2018-06-25T17:08:37.085Z,5.37
2018-06-25T17:11:05.738Z,8.33
2018-06-25T17:13:34.328Z,4.43
2018-06-25T17:16:02.894Z,4.63
2018-06-25T17:18:34.378Z,2.73
2018-06-25T17:21:02.786Z,7.53
2018-06-25T17:23:31.387Z,7.80
2018-06-25T17:26:00.408Z,4.97
2018-06-25T17:28:29.404Z,4.23
2018-06-25T17:30:58.652Z,5.23
2018-06-25T17:33:26.914Z,5.23
2018-06-25T17:35:55.811Z,4.63
2018-06-25T17:38:24.469Z,5.23
2018-06-25T17:40:53.317Z,4.63
2018-06-25T17:43:21.585Z,3.67
2018-06-25T17:45:50.319Z,12.63
2018-06-25T17:48:19.010Z,3.87
2018-06-25T17:50:47.672Z,4.63
2018-06-25T17:53:16.253Z,4.00
2018-06-25T17:55:44.830Z,4.87
2018-06-25T17:58:13.753Z,5.00
2018-06-25T18:00:42.566Z,3.40
2018-06-25T18:03:11.363Z,3.63
2018-06-25T18:05:39.975Z,4.43
2018-06-25T18:08:08.618Z,2.17
2018-06-25T18:10:37.210Z,3.70
2018-06-25T18:13:05.865Z,4.40
2018-06-25T18:15:34.149Z,5.13
2018-06-25T18:18:03.913Z,4.73
2018-06-25T18:20:32.847Z,7.03
2018-06-25T18:23:01.448Z,8.03
2018-06-25T18:25:30.129Z,5.63
2018-06-25T18:27:58.753Z,3.87
2018-06-25T18:30:27.347Z,3.93
2018-06-25T18:32:56.041Z,5.23
2018-06-25T18:35:24.650Z,4.73
2018-06-25T18:37:53.329Z,3.57
2018-06-25T18:40:23.246Z,8.17
2018-06-25T18:42:51.881Z,4.13
2018-06-25T18:45:20.177Z,3.70
2018-06-25T18:47:48.914Z,5.40
2018-06-25T18:50:17.588Z,6.60
2018-06-25T18:52:46.255Z,6.50
2018-06-25T18:55:15.050Z,7.63
2018-06-25T18:57:43.814Z,5.33
2018-06-25T19:00:12.878Z,5.40
2018-06-25T19:02:41.555Z,4.40
2018-06-25T19:05:10.429Z,4.63
2018-06-25T19:07:39.104Z,5.80
2018-06-25T19:10:07.681Z,6.47
2018-06-25T19:12:36.111Z,3.93
2018-06-25T19:15:05.374Z,5.97
2018-06-25T19:17:34.937Z,5.67
2018-06-25T19:20:03.627Z,4.43
2018-06-25T19:22:33.160Z,4.37
2018-06-25T19:25:01.762Z,6.73
2018-06-25T19:27:30.508Z,4.57
2018-06-25T19:29:59.141Z,4.37
2018-06-25T19:32:27.503Z,5.60
2018-06-25T19:34:56.703Z,5.23
2018-06-25T19:37:25.312Z,5.70
2018-06-25T19:39:53.968Z,4.87
2018-06-25T19:42:22.555Z,4.33
2018-06-25T19:44:51.257Z,6.60
2018-06-25T19:47:19.951Z,4.37
2018-06-25T19:49:48.573Z,5.10
2018-06-25T19:52:17.725Z,7.97
2018-06-25T19:54:46.364Z,4.23
2018-06-25T19:57:14.999Z,5.73
2018-06-25T19:59:43.581Z,3.50
2018-06-25T20:02:13.369Z,7.13
2018-06-25T20:04:42.972Z,7.07
2018-06-25T20:07:11.619Z,2.40
2018-06-25T20:09:40.256Z,9.60
2018-06-25T20:12:08.882Z,6.27
2018-06-25T20:14:37.563Z,5.20
2018-06-25T20:17:07.272Z,9.73
2018-06-25T20:19:36.379Z,3.83
2018-06-25T20:22:05.059Z,6.50
2018-06-25T20:24:33.688Z,4.57
2018-06-25T20:27:03.474Z,7.17
2018-06-25T20:29:32.097Z,5.43
2018-06-25T20:32:00.787Z,7.53
2018-06-25T20:34:29.421Z,5.93
2018-06-25T20:36:58.017Z,6.57
2018-06-25T20:39:26.758Z,5.77
2018-06-25T20:41:55.382Z,8.37
2018-06-25T20:44:23.990Z,5.47
2018-06-25T20:46:52.752Z,7.73
2018-06-25T20:49:21.366Z,5.93
2018-06-25T20:51:50.722Z,4.20
2018-06-25T20:54:19.299Z,4.87
2018-06-25T20:56:47.909Z,5.00
2018-06-25T20:59:16.484Z,6.57
2018-06-25T21:01:45.068Z,8.97
2018-06-25T21:04:13.654Z,7.13
2018-06-25T21:06:42.315Z,7.73
2018-06-25T21:09:12.599Z,8.73
2018-06-25T21:11:41.999Z,11.23
2018-06-25T21:14:10.602Z,6.40
2018-06-25T21:16:40.026Z,9.80
2018-06-25T21:19:08.660Z,7.03
2018-06-25T21:21:37.970Z,9.63
2018-06-25T21:24:06.603Z,7.70
2018-06-25T21:26:35.211Z,6.63
2018-06-25T21:29:03.848Z,9.10
2018-06-25T21:31:32.138Z,7.53
2018-06-25T21:34:00.720Z,9.47
2018-06-25T21:36:29.305Z,6.93
2018-06-25T21:38:57.885Z,6.83
2018-06-25T21:41:26.478Z,8.97
2018-06-25T21:43:54.757Z,6.27
2018-06-25T21:46:23.339Z,6.07
2018-06-25T21:48:51.613Z,8.93
2018-06-25T21:51:20.230Z,6.27
2018-06-25T21:53:48.786Z,7.33
2018-06-25T21:56:17.385Z,6.60
2018-06-25T21:58:45.972Z,9.70
2018-06-25T22:01:14.578Z,5.57
2018-06-25T22:03:43.845Z,6.67
2018-06-25T22:06:12.452Z,11.57
2018-06-25T22:08:41.048Z,9.70
2018-06-25T22:11:09.775Z,7.83
2018-06-25T22:13:39.120Z,10.23
2018-06-25T22:16:08.128Z,10.93
2018-06-25T22:18:36.414Z,11.20
2018-06-25T22:21:05.104Z,8.40
2018-06-25T22:23:33.670Z,9.30
2018-06-25T22:26:02.870Z,10.10
2018-06-25T22:28:31.462Z,8.43
2018-06-25T22:31:00.195Z,8.80
2018-06-25T22:33:28.858Z,10.33
2018-06-25T22:35:57.457Z,6.70
2018-06-25T22:38:26.048Z,8.53
2018-06-25T22:40:55.043Z,10.30
2018-06-25T22:43:23.649Z,7.67
2018-06-25T22:45:52.308Z,8.43
2018-06-25T22:48:20.860Z,8.07
2018-06-25T22:50:49.475Z,14.13
2018-06-25T22:53:18.015Z,9.57
2018-06-25T22:55:46.554Z,10.17
2018-06-25T22:58:15.096Z,13.53
2018-06-25T23:00:43.670Z,7.07
2018-06-25T23:03:12.213Z,9.47
2018-06-25T23:05:41.074Z,9.67
2018-06-25T23:08:09.681Z,10.87
2018-06-25T23:10:38.226Z,12.03
2018-06-25T23:13:07.338Z,8.67
2018-06-25T23:15:35.929Z,9.47
2018-06-25T23:18:04.493Z,9.10
2018-06-25T23:20:33.803Z,8.73
2018-06-25T23:23:02.793Z,12.33
2018-06-25T23:25:31.518Z,12.00
2018-06-25T23:28:00.088Z,8.97
2018-06-25T23:30:28.627Z,11.90
2018-06-25T23:32:57.138Z,12.37
2018-06-25T23:35:25.804Z,11.50
2018-06-25T23:37:54.379Z,12.43
2018-06-25T23:40:22.942Z,12.13
2018-06-25T23:42:51.540Z,8.17
2018-06-25T23:45:20.097Z,10.40
2018-06-25T23:47:48.657Z,9.27
2018-06-25T23:50:17.255Z,12.13
2018-06-25T23:52:45.811Z,15.57
2018-06-25T23:55:14.352Z,8.50
2018-06-25T23:57:43.003Z,10.57
